sensor_id;sensor_type;location;lat;lon;timestamp;pressure;altitude;pressure_sealevel;temperature;humidity
18813;BME280;9534;51.140;6.296;2022-12-18T00:02:45;101783.91;;;-5.79;100.00
18813;BME280;9534;51.140;6.296;2022-12-18T00:06:49;101783.47;;;-6.03;100.00
18813;BME280;9534;51.140;6.296;2022-12-18T00:10:52;101778.78;;;-5.98;100.00
18813;BME280;9534;51.140;6.296;2022-12-18T00:15:03;101782.59;;;-5.87;100.00
18813;BME280;9534;51.140;6.296;2022-12-18T00:19:06;101774.34;;;-5.83;100.00
18813;BME280;9534;51.140;6.296;2022-12-18T00:23:10;101780.63;;;-5.84;100.00
18813;BME280;9534;51.140;6.296;2022-12-18T00:27:13;101780.03;;;-5.88;100.00
18813;BME280;9534;51.140;6.296;2022-12-18T00:31:20;101779.69;;;-5.83;100.00
18813;BME280;9534;51.140;6.296;2022-12-18T00:35:26;101763.16;;;-5.89;100.00
18813;BME280;9534;51.140;6.296;2022-12-18T00:39:30;101771.09;;;-5.88;100.00
18813;BME280;9534;51.140;6.296;2022-12-18T00:43:33;101772.31;;;-5.78;100.00
18813;BME280;9534;51.140;6.296;2022-12-18T00:47:39;101769.22;;;-5.86;100.00
18813;BME280;9534;51.140;6.296;2022-12-18T00:51:42;101767.50;;;-5.87;100.00
18813;BME280;9534;51.140;6.296;2022-12-18T00:55:46;101772.63;;;-5.84;100.00
18813;BME280;9534;51.140;6.296;2022-12-18T00:59:49;101769.91;;;-5.82;100.00
18813;BME280;9534;51.140;6.296;2022-12-18T01:03:54;101761.97;;;-5.84;100.00
18813;BME280;9534;51.140;6.296;2022-12-18T01:07:57;101755.28;;;-5.90;100.00
18813;BME280;9534;51.140;6.296;2022-12-18T01:12:01;101762.81;;;-5.98;100.00
18813;BME280;9534;51.140;6.296;2022-12-18T01:16:04;101743.84;;;-5.92;100.00
18813;BME280;9534;51.140;6.296;2022-12-18T01:20:12;101746.19;;;-5.87;100.00
18813;BME280;9534;51.140;6.296;2022-12-18T01:24:16;101752.50;;;-5.72;100.00
18813;BME280;9534;51.140;6.296;2022-12-18T01:28:19;101759.78;;;-5.76;100.00
18813;BME280;9534;51.140;6.296;2022-12-18T01:32:22;101761.34;;;-5.72;100.00
18813;BME280;9534;51.140;6.296;2022-12-18T01:36:29;101750.69;;;-5.72;100.00
18813;BME280;9534;51.140;6.296;2022-12-18T01:40:32;101767.88;;;-5.62;100.00
18813;BME280;9534;51.140;6.296;2022-12-18T01:44:58;101763.75;;;-5.67;100.00
18813;BME280;9534;51.140;6.296;2022-12-18T01:49:02;101747.06;;;-5.71;100.00
18813;BME280;9534;51.140;6.296;2022-12-18T01:53:10;101753.38;;;-5.88;100.00
18813;BME280;9534;51.140;6.296;2022-12-18T01:57:14;101753.09;;;-5.99;100.00
18813;BME280;9534;51.140;6.296;2022-12-18T02:01:18;101757.94;;;-6.07;100.00
18813;BME280;9534;51.140;6.296;2022-12-18T02:05:29;101754.25;;;-5.88;100.00
18813;BME280;9534;51.140;6.296;2022-12-18T02:09:43;101744.81;;;-5.78;100.00
18813;BME280;9534;51.140;6.296;2022-12-18T02:13:53;101743.78;;;-5.76;100.00
18813;BME280;9534;51.140;6.296;2022-12-18T02:18:05;101752.03;;;-5.65;100.00
18813;BME280;9534;51.140;6.296;2022-12-18T02:22:23;101752.91;;;-5.64;100.00
18813;BME280;9534;51.140;6.296;2022-12-18T02:26:31;101740.53;;;-5.65;100.00
18813;BME280;9534;51.140;6.296;2022-12-18T02:30:37;101740.44;;;-5.79;100.00
18813;BME280;9534;51.140;6.296;2022-12-18T02:34:43;101738.44;;;-5.76;100.00
18813;BME280;9534;51.140;6.296;2022-12-18T02:38:50;101736.72;;;-5.77;100.00
18813;BME280;9534;51.140;6.296;2022-12-18T02:43:02;101734.84;;;-5.75;100.00
18813;BME280;9534;51.140;6.296;2022-12-18T02:47:10;101739.50;;;-5.78;100.00
18813;BME280;9534;51.140;6.296;2022-12-18T02:51:18;101745.94;;;-5.82;100.00
18813;BME280;9534;51.140;6.296;2022-12-18T02:55:41;101752.72;;;-5.77;100.00
18813;BME280;9534;51.140;6.296;2022-12-18T02:59:56;101741.78;;;-5.88;100.00
18813;BME280;9534;51.140;6.296;2022-12-18T03:04:07;101736.00;;;-5.95;100.00
18813;BME280;9534;51.140;6.296;2022-12-18T03:08:14;101727.53;;;-6.03;100.00
18813;BME280;9534;51.140;6.296;2022-12-18T03:12:26;101727.75;;;-6.08;100.00
18813;BME280;9534;51.140;6.296;2022-12-18T03:16:34;101718.75;;;-6.05;100.00
18813;BME280;9534;51.140;6.296;2022-12-18T03:20:43;101711.72;;;-6.06;100.00
18813;BME280;9534;51.140;6.296;2022-12-18T03:24:52;101721.28;;;-6.19;100.00
18813;BME280;9534;51.140;6.296;2022-12-18T03:29:02;101720.72;;;-6.26;100.00
18813;BME280;9534;51.140;6.296;2022-12-18T03:33:12;101713.59;;;-6.42;100.00
18813;BME280;9534;51.140;6.296;2022-12-18T03:37:19;101714.00;;;-6.50;100.00
18813;BME280;9534;51.140;6.296;2022-12-18T03:41:29;101708.56;;;-6.48;100.00
18813;BME280;9534;51.140;6.296;2022-12-18T03:46:03;101711.88;;;-6.43;100.00
18813;BME280;9534;51.140;6.296;2022-12-18T03:50:13;101699.66;;;-6.47;100.00
18813;BME280;9534;51.140;6.296;2022-12-18T03:54:23;101702.78;;;-6.56;100.00
18813;BME280;9534;51.140;6.296;2022-12-18T03:58:37;101690.56;;;-6.43;100.00
18813;BME280;9534;51.140;6.296;2022-12-18T04:02:53;101691.75;;;-6.49;100.00
18813;BME280;9534;51.140;6.296;2022-12-18T04:07:06;101685.09;;;-6.40;100.00
18813;BME280;9534;51.140;6.296;2022-12-18T04:11:12;101697.78;;;-6.45;100.00
18813;BME280;9534;51.140;6.296;2022-12-18T04:15:18;101695.13;;;-6.28;100.00
18813;BME280;9534;51.140;6.296;2022-12-18T04:19:21;101695.00;;;-6.10;100.00
18813;BME280;9534;51.140;6.296;2022-12-18T04:23:28;101691.97;;;-6.02;100.00
18813;BME280;9534;51.140;6.296;2022-12-18T04:27:33;101696.97;;;-5.96;100.00
18813;BME280;9534;51.140;6.296;2022-12-18T04:31:38;101693.53;;;-5.98;100.00
18813;BME280;9534;51.140;6.296;2022-12-18T04:35:41;101685.63;;;-5.85;100.00
18813;BME280;9534;51.140;6.296;2022-12-18T04:39:46;101678.09;;;-5.77;100.00
18813;BME280;9534;51.140;6.296;2022-12-18T04:43:57;101669.06;;;-5.89;100.00
18813;BME280;9534;51.140;6.296;2022-12-18T04:48:01;101673.19;;;-5.84;100.00
18813;BME280;9534;51.140;6.296;2022-12-18T04:52:06;101658.16;;;-5.70;100.00
18813;BME280;9534;51.140;6.296;2022-12-18T04:56:12;101654.91;;;-5.59;100.00
18813;BME280;9534;51.140;6.296;2022-12-18T05:00:16;101643.38;;;-5.60;100.00
18813;BME280;9534;51.140;6.296;2022-12-18T05:04:19;101650.41;;;-5.59;100.00
18813;BME280;9534;51.140;6.296;2022-12-18T05:08:22;101655.59;;;-5.56;100.00
18813;BME280;9534;51.140;6.296;2022-12-18T05:12:27;101673.31;;;-5.55;100.00
18813;BME280;9534;51.140;6.296;2022-12-18T05:16:31;101684.13;;;-5.58;100.00
18813;BME280;9534;51.140;6.296;2022-12-18T05:20:34;101684.28;;;-5.61;100.00
18813;BME280;9534;51.140;6.296;2022-12-18T05:24:38;101698.25;;;-5.56;100.00
18813;BME280;9534;51.140;6.296;2022-12-18T05:28:43;101699.91;;;-5.53;100.00
18813;BME280;9534;51.140;6.296;2022-12-18T05:32:46;101708.28;;;-5.61;100.00
18813;BME280;9534;51.140;6.296;2022-12-18T05:36:49;101714.91;;;-5.68;100.00
18813;BME280;9534;51.140;6.296;2022-12-18T05:40:53;101712.50;;;-5.72;100.00
18813;BME280;9534;51.140;6.296;2022-12-18T05:44:58;101717.81;;;-5.88;100.00
18813;BME280;9534;51.140;6.296;2022-12-18T05:49:01;101707.22;;;-5.89;100.00
18813;BME280;9534;51.140;6.296;2022-12-18T05:53:05;101711.34;;;-5.84;100.00
18813;BME280;9534;51.140;6.296;2022-12-18T05:57:08;101714.94;;;-5.85;100.00
18813;BME280;9534;51.140;6.296;2022-12-18T06:01:15;101709.41;;;-5.80;100.00
18813;BME280;9534;51.140;6.296;2022-12-18T06:05:19;101709.03;;;-5.89;100.00
18813;BME280;9534;51.140;6.296;2022-12-18T06:09:23;101689.78;;;-5.94;100.00
18813;BME280;9534;51.140;6.296;2022-12-18T06:13:26;101690.13;;;-5.85;100.00
18813;BME280;9534;51.140;6.296;2022-12-18T06:17:31;101687.44;;;-5.68;100.00
18813;BME280;9534;51.140;6.296;2022-12-18T06:21:34;101677.78;;;-5.71;100.00
18813;BME280;9534;51.140;6.296;2022-12-18T06:25:38;101675.03;;;-5.54;100.00
18813;BME280;9534;51.140;6.296;2022-12-18T06:29:42;101682.78;;;-5.49;100.00
18813;BME280;9534;51.140;6.296;2022-12-18T06:33:46;101680.91;;;-5.47;100.00
18813;BME280;9534;51.140;6.296;2022-12-18T06:37:50;101675.47;;;-5.46;100.00
18813;BME280;9534;51.140;6.296;2022-12-18T06:41:53;101680.03;;;-5.48;100.00
18813;BME280;9534;51.140;6.296;2022-12-18T06:45:59;101668.25;;;-5.44;100.00
18813;BME280;9534;51.140;6.296;2022-12-18T06:50:04;101661.97;;;-5.43;100.00
18813;BME280;9534;51.140;6.296;2022-12-18T06:54:07;101672.47;;;-5.40;100.00
18813;BME280;9534;51.140;6.296;2022-12-18T06:58:11;101687.34;;;-5.36;100.00
18813;BME280;9534;51.140;6.296;2022-12-18T07:06:23;101685.69;;;-5.38;100.00
18813;BME280;9534;51.140;6.296;2022-12-18T07:10:26;101682.34;;;-5.42;100.00
18813;BME280;9534;51.140;6.296;2022-12-18T07:14:30;101673.56;;;-5.44;100.00
18813;BME280;9534;51.140;6.296;2022-12-18T07:18:33;101672.63;;;-5.43;100.00
18813;BME280;9534;51.140;6.296;2022-12-18T07:22:38;101670.06;;;-5.44;100.00
18813;BME280;9534;51.140;6.296;2022-12-18T07:26:41;101663.78;;;-5.43;100.00
18813;BME280;9534;51.140;6.296;2022-12-18T07:30:44;101662.91;;;-5.44;100.00
18813;BME280;9534;51.140;6.296;2022-12-18T07:34:48;101659.97;;;-5.55;100.00
18813;BME280;9534;51.140;6.296;2022-12-18T07:38:52;101667.63;;;-5.49;100.00
18813;BME280;9534;51.140;6.296;2022-12-18T07:42:56;101650.47;;;-5.43;100.00
18813;BME280;9534;51.140;6.296;2022-12-18T07:46:59;101650.09;;;-5.37;100.00
18813;BME280;9534;51.140;6.296;2022-12-18T07:51:04;101634.00;;;-5.36;100.00
18813;BME280;9534;51.140;6.296;2022-12-18T07:55:09;101632.72;;;-5.29;100.00
18813;BME280;9534;51.140;6.296;2022-12-18T07:59:12;101621.09;;;-5.12;100.00
18813;BME280;9534;51.140;6.296;2022-12-18T08:03:16;101614.34;;;-4.88;100.00
18813;BME280;9534;51.140;6.296;2022-12-18T08:07:19;101613.56;;;-4.90;100.00
18813;BME280;9534;51.140;6.296;2022-12-18T08:11:25;101601.84;;;-4.88;100.00
18813;BME280;9534;51.140;6.296;2022-12-18T08:15:29;101600.22;;;-4.90;100.00
18813;BME280;9534;51.140;6.296;2022-12-18T08:19:32;101587.72;;;-4.90;100.00
18813;BME280;9534;51.140;6.296;2022-12-18T08:23:35;101586.34;;;-4.81;100.00
18813;BME280;9534;51.140;6.296;2022-12-18T08:27:45;101585.28;;;-4.79;100.00
18813;BME280;9534;51.140;6.296;2022-12-18T08:31:48;101589.25;;;-4.71;100.00
18813;BME280;9534;51.140;6.296;2022-12-18T08:35:51;101602.72;;;-4.58;100.00
18813;BME280;9534;51.140;6.296;2022-12-18T08:39:55;101596.22;;;-4.54;100.00
18813;BME280;9534;51.140;6.296;2022-12-18T08:43:59;101597.66;;;-4.49;100.00
18813;BME280;9534;51.140;6.296;2022-12-18T08:48:20;101575.28;;;-4.32;100.00
18813;BME280;9534;51.140;6.296;2022-12-18T08:52:24;101571.19;;;-4.10;100.00
18813;BME280;9534;51.140;6.296;2022-12-18T08:56:27;101584.44;;;-3.94;100.00
18813;BME280;9534;51.140;6.296;2022-12-18T09:00:33;101598.66;;;-3.66;100.00
18813;BME280;9534;51.140;6.296;2022-12-18T09:04:36;101592.84;;;-3.58;100.00
18813;BME280;9534;51.140;6.296;2022-12-18T09:08:42;101566.56;;;-3.66;100.00
18813;BME280;9534;51.140;6.296;2022-12-18T09:12:45;101554.88;;;-3.25;100.00
18813;BME280;9534;51.140;6.296;2022-12-18T09:16:50;101557.81;;;-2.89;100.00
18813;BME280;9534;51.140;6.296;2022-12-18T09:20:53;101549.78;;;-2.89;100.00
18813;BME280;9534;51.140;6.296;2022-12-18T09:24:56;101539.53;;;-2.70;100.00
18813;BME280;9534;51.140;6.296;2022-12-18T09:29:00;101526.22;;;-2.84;100.00
18813;BME280;9534;51.140;6.296;2022-12-18T09:33:04;101529.72;;;-2.57;100.00
18813;BME280;9534;51.140;6.296;2022-12-18T09:37:08;101533.53;;;-2.36;100.00
18813;BME280;9534;51.140;6.296;2022-12-18T09:41:22;101528.22;;;-2.24;100.00
18813;BME280;9534;51.140;6.296;2022-12-18T09:45:30;101524.53;;;-2.35;100.00
18813;BME280;9534;51.140;6.296;2022-12-18T09:49:43;101518.53;;;-2.26;100.00
18813;BME280;9534;51.140;6.296;2022-12-18T09:53:50;101511.69;;;-2.18;100.00
18813;BME280;9534;51.140;6.296;2022-12-18T09:58:00;101507.63;;;-2.35;100.00
18813;BME280;9534;51.140;6.296;2022-12-18T10:02:18;101502.91;;;-2.20;100.00
18813;BME280;9534;51.140;6.296;2022-12-18T10:06:31;101498.16;;;-2.16;100.00
18813;BME280;9534;51.140;6.296;2022-12-18T10:10:41;101501.03;;;-1.94;100.00
18813;BME280;9534;51.140;6.296;2022-12-18T10:14:52;101511.75;;;-1.58;100.00
18813;BME280;9534;51.140;6.296;2022-12-18T10:19:18;101514.13;;;-1.54;100.00
18813;BME280;9534;51.140;6.296;2022-12-18T10:23:32;101508.81;;;-1.19;100.00
18813;BME280;9534;51.140;6.296;2022-12-18T10:27:36;101486.63;;;-1.57;100.00
18813;BME280;9534;51.140;6.296;2022-12-18T10:31:40;101488.44;;;-1.22;100.00
18813;BME280;9534;51.140;6.296;2022-12-18T10:35:44;101472.34;;;-1.22;100.00
18813;BME280;9534;51.140;6.296;2022-12-18T10:40:06;101472.22;;;-1.44;100.00
18813;BME280;9534;51.140;6.296;2022-12-18T10:44:14;101473.69;;;-1.16;100.00
18813;BME280;9534;51.140;6.296;2022-12-18T10:48:19;101466.88;;;-1.10;100.00
18813;BME280;9534;51.140;6.296;2022-12-18T10:52:25;101475.78;;;-1.09;100.00
18813;BME280;9534;51.140;6.296;2022-12-18T10:56:34;101467.34;;;-1.15;100.00
18813;BME280;9534;51.140;6.296;2022-12-18T11:00:38;101456.66;;;-1.05;100.00
18813;BME280;9534;51.140;6.296;2022-12-18T11:04:50;101458.88;;;-0.99;100.00
18813;BME280;9534;51.140;6.296;2022-12-18T11:08:59;101451.31;;;-0.94;100.00
18813;BME280;9534;51.140;6.296;2022-12-18T11:13:15;101434.72;;;-0.88;100.00
18813;BME280;9534;51.140;6.296;2022-12-18T11:17:21;101420.91;;;-0.83;100.00
18813;BME280;9534;51.140;6.296;2022-12-18T11:21:27;101414.78;;;-0.96;100.00
18813;BME280;9534;51.140;6.296;2022-12-18T11:25:32;101397.34;;;-0.91;100.00
18813;BME280;9534;51.140;6.296;2022-12-18T11:29:39;101400.53;;;-0.86;100.00
18813;BME280;9534;51.140;6.296;2022-12-18T11:33:53;101384.91;;;-0.81;100.00
18813;BME280;9534;51.140;6.296;2022-12-18T11:38:21;101377.81;;;-0.93;100.00
18813;BME280;9534;51.140;6.296;2022-12-18T11:42:34;101364.00;;;-0.88;100.00
18813;BME280;9534;51.140;6.296;2022-12-18T11:46:46;101372.56;;;-0.83;100.00
18813;BME280;9534;51.140;6.296;2022-12-18T11:50:54;101376.97;;;-0.71;100.00
18813;BME280;9534;51.140;6.296;2022-12-18T11:55:00;101371.97;;;-0.65;100.00
18813;BME280;9534;51.140;6.296;2022-12-18T11:59:09;101376.50;;;-0.65;100.00
18813;BME280;9534;51.140;6.296;2022-12-18T12:03:39;101378.81;;;-0.61;100.00
18813;BME280;9534;51.140;6.296;2022-12-18T12:07:55;101369.28;;;-0.54;100.00
18813;BME280;9534;51.140;6.296;2022-12-18T12:12:15;101375.88;;;-0.47;100.00
18813;BME280;9534;51.140;6.296;2022-12-18T12:16:24;101362.34;;;-0.45;100.00
18813;BME280;9534;51.140;6.296;2022-12-18T12:20:42;101353.41;;;-0.57;100.00
18813;BME280;9534;51.140;6.296;2022-12-18T12:24:59;101353.16;;;-0.54;100.00
18813;BME280;9534;51.140;6.296;2022-12-18T12:29:18;101350.09;;;-0.38;100.00
18813;BME280;9534;51.140;6.296;2022-12-18T12:33:35;101336.41;;;-0.35;100.00
18813;BME280;9534;51.140;6.296;2022-12-18T12:37:49;101325.38;;;-0.32;100.00
18813;BME280;9534;51.140;6.296;2022-12-18T12:41:56;101336.50;;;-0.26;100.00
18813;BME280;9534;51.140;6.296;2022-12-18T12:46:19;101318.06;;;-0.30;100.00
18813;BME280;9534;51.140;6.296;2022-12-18T12:50:25;101331.88;;;-0.24;100.00
18813;BME280;9534;51.140;6.296;2022-12-18T12:54:31;101309.41;;;-0.34;100.00
18813;BME280;9534;51.140;6.296;2022-12-18T12:58:43;101304.75;;;-0.32;100.00
18813;BME280;9534;51.140;6.296;2022-12-18T13:02:54;101300.09;;;-0.30;100.00
18813;BME280;9534;51.140;6.296;2022-12-18T13:07:03;101291.44;;;-0.33;100.00
18813;BME280;9534;51.140;6.296;2022-12-18T13:11:29;101294.00;;;-0.32;100.00
18813;BME280;9534;51.140;6.296;2022-12-18T13:16:04;101271.97;;;-0.26;100.00
18813;BME280;9534;51.140;6.296;2022-12-18T13:20:10;101262.44;;;-0.19;100.00
18813;BME280;9534;51.140;6.296;2022-12-18T13:24:23;101262.69;;;-0.22;100.00
18813;BME280;9534;51.140;6.296;2022-12-18T13:28:53;101267.31;;;-0.24;100.00
18813;BME280;9534;51.140;6.296;2022-12-18T13:33:39;101256.56;;;-0.24;100.00
18813;BME280;9534;51.140;6.296;2022-12-18T13:38:20;101242.91;;;-0.32;100.00
18813;BME280;9534;51.140;6.296;2022-12-18T13:42:42;101237.56;;;-0.43;100.00
18813;BME280;9534;51.140;6.296;2022-12-18T13:47:04;101232.91;;;-0.41;100.00
18813;BME280;9534;51.140;6.296;2022-12-18T13:51:10;101234.16;;;-0.45;100.00
18813;BME280;9534;51.140;6.296;2022-12-18T13:55:16;101236.34;;;-0.50;100.00
18813;BME280;9534;51.140;6.296;2022-12-18T13:59:24;101236.34;;;-0.50;100.00
18813;BME280;9534;51.140;6.296;2022-12-18T14:03:29;101243.44;;;-0.49;100.00
18813;BME280;9534;51.140;6.296;2022-12-18T14:07:33;101241.13;;;-0.53;100.00
18813;BME280;9534;51.140;6.296;2022-12-18T14:11:49;101241.00;;;-0.52;100.00
18813;BME280;9534;51.140;6.296;2022-12-18T14:15:53;101220.47;;;-0.53;100.00
18813;BME280;9534;51.140;6.296;2022-12-18T14:20:00;101224.13;;;-0.54;100.00
18813;BME280;9534;51.140;6.296;2022-12-18T14:24:05;101222.69;;;-0.58;100.00
18813;BME280;9534;51.140;6.296;2022-12-18T14:28:14;101213.66;;;-0.57;100.00
18813;BME280;9534;51.140;6.296;2022-12-18T14:32:20;101206.81;;;-0.61;100.00
18813;BME280;9534;51.140;6.296;2022-12-18T14:36:27;101212.19;;;-0.61;100.00
18813;BME280;9534;51.140;6.296;2022-12-18T14:40:31;101209.97;;;-0.56;100.00
18813;BME280;9534;51.140;6.296;2022-12-18T14:44:34;101211.69;;;-0.55;100.00
18813;BME280;9534;51.140;6.296;2022-12-18T14:48:57;101203.41;;;-0.63;100.00
18813;BME280;9534;51.140;6.296;2022-12-18T14:53:03;101209.75;;;-0.64;100.00
18813;BME280;9534;51.140;6.296;2022-12-18T14:57:24;101209.75;;;-0.64;100.00
18813;BME280;9534;51.140;6.296;2022-12-18T15:01:30;101210.47;;;-0.62;100.00
18813;BME280;9534;51.140;6.296;2022-12-18T15:05:35;101217.56;;;-0.61;100.00
18813;BME280;9534;51.140;6.296;2022-12-18T15:09:41;101222.94;;;-0.61;100.00
18813;BME280;9534;51.140;6.296;2022-12-18T15:13:45;101216.72;;;-0.61;100.00
18813;BME280;9534;51.140;6.296;2022-12-18T15:17:48;101223.19;;;-0.64;100.00
18813;BME280;9534;51.140;6.296;2022-12-18T15:21:52;101224.06;;;-0.63;100.00
18813;BME280;9534;51.140;6.296;2022-12-18T15:25:57;101216.09;;;-0.65;100.00
18813;BME280;9534;51.140;6.296;2022-12-18T15:30:16;101217.81;;;-0.64;100.00
18813;BME280;9534;51.140;6.296;2022-12-18T15:34:21;101232.47;;;-0.68;100.00
18813;BME280;9534;51.140;6.296;2022-12-18T15:38:25;101225.63;;;-0.72;100.00
18813;BME280;9534;51.140;6.296;2022-12-18T15:42:30;101219.53;;;-0.74;100.00
18813;BME280;9534;51.140;6.296;2022-12-18T15:46:47;101212.84;;;-0.79;100.00
18813;BME280;9534;51.140;6.296;2022-12-18T15:50:50;101213.09;;;-0.82;100.00
18813;BME280;9534;51.140;6.296;2022-12-18T15:54:55;101202.97;;;-0.79;100.00
18813;BME280;9534;51.140;6.296;2022-12-18T15:59:19;101207.84;;;-0.84;100.00
18813;BME280;9534;51.140;6.296;2022-12-18T16:03:22;101202.00;;;-0.89;100.00
18813;BME280;9534;51.140;6.296;2022-12-18T16:07:28;101202.25;;;-0.92;100.00
18813;BME280;9534;51.140;6.296;2022-12-18T16:11:33;101202.25;;;-0.92;100.00
18813;BME280;9534;51.140;6.296;2022-12-18T16:15:45;101209.81;;;-0.97;100.00
18813;BME280;9534;51.140;6.296;2022-12-18T16:19:48;101199.06;;;-0.97;100.00
18813;BME280;9534;51.140;6.296;2022-12-18T16:23:51;101199.56;;;-1.03;100.00
18813;BME280;9534;51.140;6.296;2022-12-18T16:27:55;101208.34;;;-1.01;100.00
18813;BME280;9534;51.140;6.296;2022-12-18T16:32:00;101194.44;;;-1.06;100.00
18813;BME280;9534;51.140;6.296;2022-12-18T16:36:04;101183.94;;;-1.09;100.00
18813;BME280;9534;51.140;6.296;2022-12-18T16:40:10;101188.59;;;-1.11;100.00
18813;BME280;9534;51.140;6.296;2022-12-18T16:44:14;101204.31;;;-1.06;100.00
18813;BME280;9534;51.140;6.296;2022-12-18T16:48:19;101202.84;;;-1.10;100.00
18813;BME280;9534;51.140;6.296;2022-12-18T16:52:22;101187.63;;;-1.10;100.00
18813;BME280;9534;51.140;6.296;2022-12-18T16:56:25;101183.31;;;-1.12;100.00
18813;BME280;9534;51.140;6.296;2022-12-18T17:00:29;101175.41;;;-1.13;100.00
18813;BME280;9534;51.140;6.296;2022-12-18T17:04:33;101188.44;;;-1.09;100.00
18813;BME280;9534;51.140;6.296;2022-12-18T17:08:37;101193.56;;;-1.06;100.00
18813;BME280;9534;51.140;6.296;2022-12-18T17:12:40;101189.31;;;-1.09;100.00
18813;BME280;9534;51.140;6.296;2022-12-18T17:16:44;101185.66;;;-1.08;100.00
18813;BME280;9534;51.140;6.296;2022-12-18T17:20:59;101177.47;;;-1.06;100.00
18813;BME280;9534;51.140;6.296;2022-12-18T17:25:03;101168.81;;;-0.99;100.00
18813;BME280;9534;51.140;6.296;2022-12-18T17:29:07;101167.09;;;-1.00;100.00
18813;BME280;9534;51.140;6.296;2022-12-18T17:33:10;101172.22;;;-0.97;100.00
18813;BME280;9534;51.140;6.296;2022-12-18T17:37:15;101166.13;;;-0.99;100.00
18813;BME280;9534;51.140;6.296;2022-12-18T17:41:19;101180.03;;;-0.94;100.00
18813;BME280;9534;51.140;6.296;2022-12-18T17:45:23;101186.25;;;-0.93;100.00
18813;BME280;9534;51.140;6.296;2022-12-18T17:49:26;101196.88;;;-0.92;100.00
18813;BME280;9534;51.140;6.296;2022-12-18T17:53:31;101196.00;;;-0.92;100.00
18813;BME280;9534;51.140;6.296;2022-12-18T17:57:34;101184.66;;;-0.96;100.00
18813;BME280;9534;51.140;6.296;2022-12-18T18:01:38;101183.44;;;-0.92;100.00
18813;BME280;9534;51.140;6.296;2022-12-18T18:05:46;101181.97;;;-0.96;100.00
18813;BME280;9534;51.140;6.296;2022-12-18T18:09:50;101187.84;;;-0.91;100.00
18813;BME280;9534;51.140;6.296;2022-12-18T18:13:54;101197.22;;;-0.96;100.00
18813;BME280;9534;51.140;6.296;2022-12-18T18:18:03;101178.81;;;-1.01;100.00
18813;BME280;9534;51.140;6.296;2022-12-18T18:22:06;101174.28;;;-1.00;100.00
18813;BME280;9534;51.140;6.296;2022-12-18T18:26:11;101195.66;;;-0.99;100.00
18813;BME280;9534;51.140;6.296;2022-12-18T18:30:15;101196.63;;;-1.00;100.00
18813;BME280;9534;51.140;6.296;2022-12-18T18:34:21;101181.97;;;-0.96;100.00
18813;BME280;9534;51.140;6.296;2022-12-18T18:38:25;101179.78;;;-0.91;100.00
18813;BME280;9534;51.140;6.296;2022-12-18T18:42:30;101191.50;;;-0.92;100.00
18813;BME280;9534;51.140;6.296;2022-12-18T18:46:33;101190.38;;;-0.89;100.00
18813;BME280;9534;51.140;6.296;2022-12-18T18:50:36;101181.34;;;-0.88;100.00
18813;BME280;9534;51.140;6.296;2022-12-18T18:54:39;101180.00;;;-0.83;100.00
18813;BME280;9534;51.140;6.296;2022-12-18T18:59:04;101169.03;;;-0.80;100.00
18813;BME280;9534;51.140;6.296;2022-12-18T19:03:07;101154.34;;;-0.76;100.00
18813;BME280;9534;51.140;6.296;2022-12-18T19:07:10;101173.09;;;-0.65;100.00
18813;BME280;9534;51.140;6.296;2022-12-18T19:11:16;101189.47;;;-0.68;100.00
18813;BME280;9534;51.140;6.296;2022-12-18T19:15:38;101181.31;;;-0.66;100.00
18813;BME280;9534;51.140;6.296;2022-12-18T19:19:42;101171.16;;;-0.63;100.00
18813;BME280;9534;51.140;6.296;2022-12-18T19:23:46;101167.63;;;-0.63;100.00
18813;BME280;9534;51.140;6.296;2022-12-18T19:27:49;101167.47;;;-0.62;100.00
18813;BME280;9534;51.140;6.296;2022-12-18T19:31:54;101163.34;;;-0.66;100.00
18813;BME280;9534;51.140;6.296;2022-12-18T19:35:57;101161.34;;;-0.53;100.00
18813;BME280;9534;51.140;6.296;2022-12-18T19:40:01;101165.75;;;-0.52;100.00
18813;BME280;9534;51.140;6.296;2022-12-18T19:44:15;101169.28;;;-0.51;100.00
18813;BME280;9534;51.140;6.296;2022-12-18T19:48:20;101172.81;;;-0.51;100.00
18813;BME280;9534;51.140;6.296;2022-12-18T19:52:23;101167.34;;;-0.49;100.00
18813;BME280;9534;51.140;6.296;2022-12-18T19:56:28;101182.59;;;-0.50;100.00
18813;BME280;9534;51.140;6.296;2022-12-18T20:00:33;101183.47;;;-0.49;100.00
18813;BME280;9534;51.140;6.296;2022-12-18T20:04:37;101179.44;;;-0.55;100.00
18813;BME280;9534;51.140;6.296;2022-12-18T20:08:41;101186.25;;;-0.51;100.00
18813;BME280;9534;51.140;6.296;2022-12-18T20:12:44;101183.81;;;-0.54;100.00
18813;BME280;9534;51.140;6.296;2022-12-18T20:16:47;101176.25;;;-0.49;100.00
18813;BME280;9534;51.140;6.296;2022-12-18T20:20:52;101186.00;;;-0.48;100.00
18813;BME280;9534;51.140;6.296;2022-12-18T20:24:58;101185.75;;;-0.45;100.00
18813;BME280;9534;51.140;6.296;2022-12-18T20:29:02;101191.38;;;-0.48;100.00
18813;BME280;9534;51.140;6.296;2022-12-18T20:33:05;101193.72;;;-0.43;100.00
18813;BME280;9534;51.140;6.296;2022-12-18T20:37:10;101205.56;;;-0.46;100.00
18813;BME280;9534;51.140;6.296;2022-12-18T20:41:16;101198.69;;;-0.39;100.00
18813;BME280;9534;51.140;6.296;2022-12-18T20:45:20;101195.50;;;-0.33;100.00
18813;BME280;9534;51.140;6.296;2022-12-18T20:49:24;101191.81;;;-0.32;100.00
18813;BME280;9534;51.140;6.296;2022-12-18T20:53:30;101186.84;;;-0.36;100.00
18813;BME280;9534;51.140;6.296;2022-12-18T20:57:33;101187.16;;;-0.30;100.00
18813;BME280;9534;51.140;6.296;2022-12-18T21:01:39;101189.72;;;-0.28;100.00
18813;BME280;9534;51.140;6.296;2022-12-18T21:05:49;101189.59;;;-0.27;100.00
18813;BME280;9534;51.140;6.296;2022-12-18T21:09:54;101187.91;;;-0.28;100.00
18813;BME280;9534;51.140;6.296;2022-12-18T21:13:57;101179.38;;;-0.33;100.00
18813;BME280;9534;51.140;6.296;2022-12-18T21:18:00;101187.81;;;-0.37;100.00
18813;BME280;9534;51.140;6.296;2022-12-18T21:22:03;101172.78;;;-0.40;100.00
18813;BME280;9534;51.140;6.296;2022-12-18T21:26:20;101173.28;;;-0.46;100.00
18813;BME280;9534;51.140;6.296;2022-12-18T21:30:23;101182.59;;;-0.50;100.00
18813;BME280;9534;51.140;6.296;2022-12-18T21:34:28;101180.06;;;-0.51;100.00
18813;BME280;9534;51.140;6.296;2022-12-18T21:38:31;101179.19;;;-0.52;100.00